createdAt,value
2017-06-20T00:00:02.435Z,0
2017-06-20T00:05:03.123Z,0
2017-06-20T00:10:02.587Z,0
2017-06-20T00:15:02.827Z,0
2017-06-20T00:20:03.186Z,0
2017-06-20T00:25:02.605Z,0
2017-06-20T00:30:03.145Z,0
2017-06-20T00:35:02.618Z,0
2017-06-20T00:40:02.675Z,0
2017-06-20T00:45:02.987Z,0
2017-06-20T00:50:02.421Z,0
2017-06-20T00:55:02.919Z,0
2017-06-20T01:00:02.339Z,0
2017-06-20T01:05:02.809Z,0
2017-06-20T01:10:03.170Z,0
2017-06-20T01:15:02.443Z,0
2017-06-20T01:20:02.889Z,0
2017-06-20T01:25:03.173Z,0
2017-06-20T01:30:02.540Z,0
2017-06-20T01:35:02.878Z,0
2017-06-20T01:40:02.365Z,0
2017-06-20T01:45:02.716Z,0
2017-06-20T01:50:03.204Z,0
2017-06-20T01:55:02.581Z,0
2017-06-20T02:00:02.928Z,0
2017-06-20T02:05:02.358Z,0
2017-06-20T02:10:02.764Z,0
2017-06-20T02:15:03.074Z,0
2017-06-20T02:20:02.460Z,0
2017-06-20T02:25:02.973Z,0
2017-06-20T02:30:02.440Z,0
2017-06-20T02:35:02.750Z,1
2017-06-20T02:40:03.117Z,2
2017-06-20T02:45:02.553Z,5
2017-06-20T02:50:03.022Z,9
2017-06-20T02:55:02.421Z,29
2017-06-20T03:00:02.748Z,34
2017-06-20T03:05:03.171Z,44
2017-06-20T03:10:02.539Z,53
2017-06-20T03:15:03.040Z,61
2017-06-20T03:20:02.404Z,78
2017-06-20T03:25:02.745Z,144
2017-06-20T03:30:03.119Z,273
2017-06-20T03:35:02.480Z,353
2017-06-20T03:40:02.855Z,458
2017-06-20T03:45:03.317Z,567
2017-06-20T03:50:02.632Z,657
2017-06-20T03:55:02.957Z,906
2017-06-20T04:00:03.459Z,1000
2017-06-20T04:05:02.797Z,1000
2017-06-20T04:10:03.228Z,1000
2017-06-20T04:15:02.675Z,1000
2017-06-20T04:20:03.074Z,1000
2017-06-20T04:25:02.393Z,1000
2017-06-20T04:30:02.960Z,1000
2017-06-20T04:35:02.422Z,1000
2017-06-20T04:40:02.930Z,1000
2017-06-20T04:45:03.291Z,2000
2017-06-20T04:50:02.700Z,2000
2017-06-20T04:55:03.170Z,2000
2017-06-20T05:00:02.520Z,2000
2017-06-20T05:05:02.792Z,2000
2017-06-20T05:10:03.256Z,2000
2017-06-20T05:15:02.509Z,2000
2017-06-20T05:20:02.895Z,3000
2017-06-20T05:25:03.228Z,3000
2017-06-20T05:30:02.633Z,3000
2017-06-20T05:35:03.087Z,2000
2017-06-20T05:40:02.500Z,2000
2017-06-20T05:45:02.861Z,2000
2017-06-20T05:50:02.410Z,3000
2017-06-20T05:55:02.832Z,3000
2017-06-20T06:00:02.344Z,3000
2017-06-20T06:05:02.788Z,3000
2017-06-20T06:10:03.319Z,3000
2017-06-20T06:15:02.642Z,3000
2017-06-20T06:20:03.014Z,3000
2017-06-20T06:25:02.506Z,4000
2017-06-20T06:30:02.870Z,4000
2017-06-20T06:35:03.238Z,4000
2017-06-20T06:40:02.693Z,4000
2017-06-20T06:45:03.027Z,4000
2017-06-20T06:50:02.509Z,5000
2017-06-20T06:55:02.875Z,5000
2017-06-20T07:00:03.323Z,5000
2017-06-20T07:05:02.813Z,5000
2017-06-20T07:10:03.228Z,5000
2017-06-20T07:15:02.513Z,5000
2017-06-20T07:20:02.837Z,5000
2017-06-20T07:25:03.330Z,6000
2017-06-20T07:30:02.602Z,13000
2017-06-20T07:35:02.948Z,32000
2017-06-20T07:40:02.408Z,32000
2017-06-20T07:45:02.717Z,32000
2017-06-20T07:50:03.225Z,33000
2017-06-20T07:55:02.625Z,32000
2017-06-20T08:00:03.131Z,36000
2017-06-20T08:05:02.564Z,37000
2017-06-20T08:10:03.045Z,37000
2017-06-20T08:15:02.563Z,40000
2017-06-20T08:20:02.671Z,38000
2017-06-20T08:25:03.013Z,40000
2017-06-20T08:30:03.035Z,41000
2017-06-20T08:35:02.336Z,44000
2017-06-20T08:40:03.031Z,47000
2017-06-20T08:45:03.249Z,47000
2017-06-20T08:50:02.571Z,48000
2017-06-20T08:55:03.064Z,48000
2017-06-20T09:00:03.020Z,48000
2017-06-20T09:05:03.310Z,49000
2017-06-20T09:10:02.421Z,49000
2017-06-20T09:15:02.830Z,49000
2017-06-20T09:20:03.106Z,49000
2017-06-20T09:25:02.452Z,49000
2017-06-20T09:30:02.851Z,49000
2017-06-20T09:35:02.581Z,50000
2017-06-20T09:40:03.066Z,50000
2017-06-20T09:45:02.729Z,49000
2017-06-20T09:50:03.243Z,47000
2017-06-20T09:55:02.958Z,51000
2017-06-20T10:00:03.097Z,51000
2017-06-20T10:05:02.681Z,51000
2017-06-20T10:10:02.918Z,47000
2017-06-20T10:15:02.698Z,49000
2017-06-20T10:20:02.960Z,50000
2017-06-20T10:25:03.250Z,51000
2017-06-20T10:30:02.363Z,49000
2017-06-20T10:35:02.721Z,49000
2017-06-20T10:40:03.335Z,47000
2017-06-20T10:45:02.572Z,44000
2017-06-20T10:50:02.859Z,47000
2017-06-20T10:55:02.510Z,41000
2017-06-20T11:00:02.739Z,41000
2017-06-20T11:05:02.601Z,49000
2017-06-20T11:10:02.763Z,48000
2017-06-20T11:15:02.781Z,49000
2017-06-20T11:20:02.449Z,51000
2017-06-20T11:25:02.337Z,45000
2017-06-20T11:30:02.874Z,46000
2017-06-20T11:35:03.332Z,47000
2017-06-20T11:40:02.391Z,27000
2017-06-20T11:45:02.727Z,49000
2017-06-20T11:50:02.771Z,51000
2017-06-20T11:55:02.897Z,9000
2017-06-20T12:00:02.900Z,37000
2017-06-20T12:05:02.933Z,49000
2017-06-20T12:10:02.935Z,46000
2017-06-20T12:15:03.264Z,45000
2017-06-20T12:20:03.081Z,45000
2017-06-20T12:25:03.220Z,41000
2017-06-20T12:30:03.082Z,46000
2017-06-20T12:35:02.458Z,50000
2017-06-20T12:40:02.771Z,29000
2017-06-20T12:45:02.379Z,22000
2017-06-20T12:50:02.524Z,22000
2017-06-20T12:55:02.956Z,40000
2017-06-20T13:00:03.171Z,41000
2017-06-20T13:05:03.009Z,35000
2017-06-20T13:10:02.309Z,31000
2017-06-20T13:15:02.707Z,39000
2017-06-20T13:20:02.974Z,40000
2017-06-20T13:25:02.893Z,33000
2017-06-20T13:30:03.206Z,36000
2017-06-20T13:35:02.804Z,36000
2017-06-20T13:40:03.139Z,38000
2017-06-20T13:45:03.195Z,30000
2017-06-20T13:50:02.374Z,21000
2017-06-20T13:55:02.767Z,30000
2017-06-20T14:00:03.061Z,28000
2017-06-20T14:05:02.564Z,26000
2017-06-20T14:10:02.916Z,24000
2017-06-20T14:15:03.168Z,20000
2017-06-20T14:20:02.438Z,16000
2017-06-20T14:25:02.663Z,13000
2017-06-20T14:30:02.949Z,12000
2017-06-20T14:35:03.266Z,20000
2017-06-20T14:40:02.753Z,37000
2017-06-20T14:45:03.054Z,30000
2017-06-20T14:50:02.426Z,29000
2017-06-20T14:55:02.331Z,27000
2017-06-20T15:00:02.948Z,25000
2017-06-20T15:05:02.510Z,24000
2017-06-20T15:10:02.981Z,20000
2017-06-20T15:15:03.133Z,19000
2017-06-20T15:20:02.721Z,17000
2017-06-20T15:25:02.674Z,8000
2017-06-20T15:30:03.135Z,12000
2017-06-20T15:35:02.796Z,19000
2017-06-20T15:40:03.004Z,13000
2017-06-20T15:45:03.229Z,5000
2017-06-20T15:50:03.330Z,6000
2017-06-20T15:55:02.407Z,11000
2017-06-20T16:00:02.722Z,15000
2017-06-20T16:05:03.035Z,17000
2017-06-20T16:10:02.348Z,13000
2017-06-20T16:15:03.235Z,8000
2017-06-20T16:20:03.127Z,6000
2017-06-20T16:25:02.622Z,5000
2017-06-20T16:30:02.792Z,4000
2017-06-20T16:35:03.257Z,5000
2017-06-20T16:40:03.174Z,5000
2017-06-20T16:45:02.847Z,5000
2017-06-20T16:50:03.088Z,5000
2017-06-20T16:55:02.332Z,5000
2017-06-20T17:00:02.757Z,5000
2017-06-20T17:05:03.157Z,5000
2017-06-20T17:10:02.399Z,6000
2017-06-20T17:15:02.775Z,6000
2017-06-20T17:20:02.518Z,6000
2017-06-20T17:25:02.522Z,7000
2017-06-20T17:30:02.748Z,9000
2017-06-20T17:35:02.766Z,10000
2017-06-20T17:40:03.201Z,6000
2017-06-20T17:45:03.253Z,6000
2017-06-20T17:50:02.586Z,3000
2017-06-20T17:55:02.968Z,2000
2017-06-20T18:00:02.684Z,3000
2017-06-20T18:05:03.254Z,5000
2017-06-20T18:10:02.605Z,5000
2017-06-20T18:15:02.744Z,4000
2017-06-20T18:20:02.942Z,4000
2017-06-20T18:25:02.415Z,4000
2017-06-20T18:30:02.642Z,4000
2017-06-20T18:35:03.037Z,3000
2017-06-20T18:40:02.790Z,3000
2017-06-20T18:45:02.477Z,3000
2017-06-20T18:50:02.788Z,2000
2017-06-20T18:55:02.434Z,2000
2017-06-20T19:00:02.554Z,1000
2017-06-20T19:05:02.448Z,1000
2017-06-20T19:10:02.955Z,1000
2017-06-20T19:15:02.969Z,886
2017-06-20T19:20:02.433Z,730
2017-06-20T19:25:03.135Z,624
2017-06-20T19:30:03.138Z,552
2017-06-20T19:35:03.218Z,459
2017-06-20T19:40:02.834Z,364
2017-06-20T19:45:02.285Z,276
2017-06-20T19:50:03.160Z,145
2017-06-20T19:55:03.074Z,80
2017-06-20T20:00:02.663Z,66
2017-06-20T20:05:03.137Z,56
2017-06-20T20:10:03.124Z,48
2017-06-20T20:15:02.626Z,43
2017-06-20T20:20:02.704Z,30
2017-06-20T20:25:03.139Z,21
2017-06-20T20:30:03.028Z,13
2017-06-20T20:35:02.871Z,7
2017-06-20T20:40:03.102Z,3
2017-06-20T20:45:02.634Z,1
2017-06-20T20:50:02.913Z,0
2017-06-20T20:55:02.609Z,0
2017-06-20T21:00:03.122Z,0
2017-06-20T21:05:03.219Z,0
2017-06-20T21:10:02.483Z,0
2017-06-20T21:15:02.786Z,0
2017-06-20T21:20:03.133Z,0
2017-06-20T21:25:03.316Z,0
2017-06-20T21:30:03.073Z,0
2017-06-20T21:35:02.553Z,0
2017-06-20T21:40:02.946Z,0
2017-06-20T21:45:02.394Z,0
2017-06-20T21:50:02.784Z,0
2017-06-20T21:55:03.257Z,0
2017-06-20T22:00:02.552Z,0
2017-06-20T22:05:03.076Z,0
2017-06-20T22:10:02.434Z,0
2017-06-20T22:15:02.956Z,0
2017-06-20T22:20:02.458Z,0
2017-06-20T22:25:02.842Z,0
2017-06-20T22:30:02.326Z,0
2017-06-20T22:35:02.752Z,0
2017-06-20T22:40:03.034Z,0
2017-06-20T22:45:02.361Z,0
2017-06-20T22:50:02.770Z,0
2017-06-20T22:55:03.061Z,0
2017-06-20T23:00:02.613Z,0
2017-06-20T23:05:03.283Z,0
2017-06-20T23:10:02.617Z,0
2017-06-20T23:15:03.046Z,0
2017-06-20T23:20:02.545Z,0
2017-06-20T23:25:02.992Z,0
2017-06-20T23:30:03.295Z,0
2017-06-20T23:35:02.701Z,0
2017-06-20T23:40:03.164Z,0
2017-06-20T23:45:02.530Z,0
2017-06-20T23:50:02.878Z,0
2017-06-20T23:55:02.376Z,0
